Data for 10/15/2008

Time Sea-Level Adjusted Pressure Absolute Pressure Temperature Relative Humidity Dew Point   
(mb) (inHg) (mb) (inHg) (C) (F) (%) (C) (F)
00:05 1025 30.27 854 25.22 5 41 75 0.8 33.5
00:10 1025 30.27 854 25.22 5.1 41.2 75 1 33.8
00:15 1025 30.27 854 25.22 5.1 41.3 75 1.1 34
00:20 1025 30.27 854 25.22 5.1 41.2 75 1.1 34
00:25 1025 30.27 854 25.22 5.2 41.3 76 1.4 34.4
00:30 1025 30.27 854 25.22 4.8 40.6 78 1.3 34.4
00:35 1025 30.27 854 25.22 4.7 40.4 77 0.9 33.6
00:40 1025 30.27 854 25.22 5 41 76 1.1 33.9
00:45 1025 30.27 854 25.22 5 41 77 1.3 34.3
00:50 1025 30.27 854 25.22 5 41 77 1.3 34.3
00:55 1025 30.27 854 25.22 5 41.1 77 1.4 34.4
01:00 1025 30.27 854 25.22 4.9 40.7 79 1.5 34.8
01:05 1025 30.27 854 25.22 4.6 40.2 80 1.4 34.5
01:10 1025 30.27 854 25.22 4.5 40.1 80 1.3 34.4
01:15 1025 30.27 854 25.22 4.4 39.9 81 1.4 34.5
01:20 1025 30.27 854 25.22 4.3 39.7 80 1.2 34.1
01:25 1025 30.27 854 25.22 4.3 39.8 80 1.2 34.2
01:30 1025 30.27 854 25.22 4.2 39.6 80 1.1 33.9
01:35 1025 30.27 854 25.22 4.2 39.5 80 1 33.9
01:40 1025 30.27 854 25.22 4.2 39.6 79 1 33.7
01:45 1025 30.27 854 25.22 4.3 39.8 79 1 33.8
01:50 1025 30.27 854 25.22 4.4 39.9 78 0.9 33.7
01:55 1025 30.27 854 25.22 4.4 40 78 0.9 33.6
02:00 1025 30.27 854 25.22 4.6 40.3 77 0.9 33.7
02:05 1025 30.27 854 25.22 4.6 40.3 78 1.2 34.1
02:10 1025 30.27 854 25.22 4.3 39.7 80 1.1 34
02:15 1025 30.27 854 25.22 4.2 39.5 80 1 33.8
02:20 1025 30.27 854 25.22 4.2 39.6 80 1 33.8
02:25 1025 30.27 854 25.22 4.3 39.7 80 1.1 33.9
02:30 1025 30.27 854 25.22 4.3 39.7 78 0.9 33.6
02:35 1025 30.27 854 25.22 4.5 40.1 78 1 33.8
02:40 1025 30.27 854 25.22 4.6 40.2 78 1.1 34
02:45 1025 30.27 854 25.22 4.5 40.1 77 0.8 33.5
02:50 1025 30.27 854 25.22 4.5 40.1 78 1 33.8
02:55 1025 30.27 854 25.22 4.3 39.7 80 1.2 34.1
03:00 1025 30.27 854 25.22 4.1 39.4 81 1.1 34
03:05 1025 30.27 854 25.22 4 39.2 82 1.1 34
03:10 1024 30.24 854 25.22 3.9 39 82 1 33.8
03:15 1024 30.24 854 25.22 3.8 38.8 83 1.1 34
03:20 1024 30.24 853 25.19 3.6 38.5 84 1.1 33.9
03:25 1024 30.24 853 25.19 3.5 38.2 83 0.8 33.5
03:30 1024 30.24 853 25.19 3.3 38 82 0.6 33.1
03:35 1024 30.24 853 25.19 3.2 37.8 82 0.5 32.9
03:40 1024 30.24 853 25.19 3.3 37.9 81 0.4 32.8
03:45 1024 30.24 853 25.19 3.3 37.9 81 0.4 32.7
03:50 1024 30.24 853 25.19 3.4 38 80 0.3 32.5
03:55 1024 30.24 853 25.19 3.4 38 80 0.3 32.5
04:00 1024 30.24 853 25.19 3.3 37.9 81 0.3 32.5
04:05 1024 30.24 853 25.19 3.1 37.6 81 0.2 32.4
04:10 1024 30.24 853 25.19 3 37.4 81 0 32.1
04:15 1024 30.24 853 25.19 2.9 37.2 81 -0.1 31.8
04:20 1024 30.24 853 25.19 2.9 37.2 79 -0.3 31.4
04:25 1024 30.24 853 25.19 3 37.4 79 -0.3 31.4
04:30 1024 30.24 853 25.19 3.2 37.7 77 -0.4 31.2
04:35 1024 30.24 853 25.19 3.2 37.7 78 -0.3 31.5
04:40 1024 30.24 853 25.19 3.1 37.5 78 -0.4 31.3
04:45 1024 30.24 853 25.19 3.1 37.6 78 -0.4 31.2
04:50 1024 30.24 853 25.19 3 37.5 78 -0.4 31.2
04:55 1024 30.24 853 25.19 3 37.4 78 -0.5 31.2
05:00 1024 30.24 853 25.19 3.1 37.6 77 -0.5 31
05:05 1024 30.24 853 25.19 3.2 37.8 78 -0.3 31.5
05:10 1024 30.24 853 25.19 3 37.3 80 -0.2 31.7
05:15 1024 30.24 853 25.19 2.9 37.1 80 -0.3 31.5
05:20 1024 30.24 853 25.19 2.9 37.1 80 -0.2 31.7
05:25 1024 30.24 853 25.19 2.7 36.9 80 -0.4 31.2
05:30 1024 30.24 853 25.19 2.8 37.1 79 -0.4 31.2
05:35 1024 30.24 853 25.19 2.7 36.9 80 -0.4 31.2
05:40 1024 30.24 853 25.19 2.6 36.7 80 -0.4 31.2
05:45 1024 30.24 853 25.19 2.5 36.4 82 -0.4 31.3
05:50 1024 30.24 853 25.19 2.3 36.1 83 -0.4 31.3
05:55 1024 30.24 853 25.19 2.2 35.9 82 -0.5 31
06:00 1024 30.24 853 25.19 2.1 35.7 82 -0.7 30.7
06:05 1024 30.24 853 25.19 2.3 36.1 80 -0.9 30.4
06:10 1024 30.24 853 25.19 2.6 36.7 79 -0.7 30.8
06:15 1024 30.24 853 25.19 2.4 36.4 79 -0.8 30.5
06:20 1024 30.24 853 25.19 2.4 36.3 79 -0.9 30.5
06:25 1024 30.24 853 25.19 2.4 36.3 79 -0.8 30.5
06:30 1024 30.24 853 25.19 2.5 36.4 79 -0.9 30.4
06:35 1024 30.24 853 25.19 2.4 36.4 79 -0.8 30.5
06:40 1024 30.24 853 25.19 2.2 36 80 -0.8 30.5
06:45 1024 30.24 853 25.19 1.9 35.3 82 -0.9 30.4
06:50 1024 30.24 853 25.19 1.6 34.9 82 -1.1 29.9
06:55 1024 30.24 853 25.19 1.9 35.4 81 -1 30.2
07:00 1024 30.24 853 25.19 1.9 35.4 81 -1 30.3
07:05 1024 30.24 853 25.19 1.7 35.1 82 -1.1 30
07:10 1024 30.24 853 25.19 1.5 34.6 82 -1.2 29.8
07:15 1024 30.24 853 25.19 1.3 34.3 84 -1.2 29.9
07:20 1024 30.24 853 25.19 1.2 34.2 84 -1.2 29.8
07:25 1024 30.24 853 25.19 1.2 34.2 84 -1.2 29.9
07:30 1024 30.24 853 25.19 1.4 34.5 83 -1.2 29.8
07:35 1024 30.24 853 25.19 1.5 34.7 82 -1.2 29.8
07:40 1024 30.24 853 25.19 1.6 34.8 82 -1.1 29.9
07:45 1024 30.24 853 25.19 1.5 34.7 83 -1.1 30
07:50 1024 30.24 853 25.19 1.4 34.6 83 -1.1 30
07:55 1024 30.24 853 25.19 1.4 34.5 83 -1.2 29.8
08:00 1024 30.24 853 25.19 1.5 34.8 82 -1.1 30
08:05 1024 30.24 853 25.19 1.7 35.1 82 -1.1 30
08:10 1024 30.24 853 25.19 1.9 35.4 79 -1.3 29.6
08:15 1024 30.24 853 25.19 2.4 36.3 78 -1.1 30.1
08:20 1024 30.24 853 25.19 2.3 36.2 78 -1 30.1
08:25 1024 30.24 853 25.19 2.3 36.1 79 -1 30.2
08:30 1024 30.24 853 25.19 2.1 35.9 80 -1 30.2
08:35 1024 30.24 853 25.19 2.1 35.8 79 -1.1 30.1
08:40 1024 30.24 853 25.19 2.3 36.2 78 -1.1 30
08:45 1024 30.24 853 25.19 2.5 36.5 76 -1.3 29.7
08:50 1024 30.24 853 25.19 2.6 36.7 77 -1 30.2
08:55 1024 30.24 853 25.19 2.6 36.7 78 -0.9 30.4
09:00 1024 30.24 853 25.19 2.7 36.9 77 -0.8 30.5
09:05 1024 30.24 853 25.19 2.7 36.9 78 -0.8 30.6
09:10 1024 30.24 853 25.19 2.7 36.9 78 -0.7 30.7
09:15 1024 30.24 853 25.19 3 37.4 76 -0.8 30.5
09:20 1024 30.24 853 25.19 3.6 38.4 74 -0.7 30.8
09:25 1024 30.24 853 25.19 3.7 38.6 72 -0.8 30.5
09:30 1024 30.24 853 25.19 3.7 38.6 73 -0.6 30.9
09:35 1024 30.24 853 25.19 3.8 38.9 73 -0.5 31.1
09:40 1024 30.24 853 25.19 4.1 39.5 73 -0.3 31.4
09:45 1024 30.24 853 25.19 4.2 39.6 70 -0.7 30.7
09:50 1024 30.24 853 25.19 4.4 39.9 68 -1 30.2
09:55 1024 30.24 853 25.19 5.5 41.8 65 -0.6 30.9
10:00 1024 30.24 853 25.19 5.8 42.5 66 0.1 32.1
10:05 1024 30.24 853 25.19 5.9 42.6 64 -0.4 31.3
10:10 1024 30.24 853 25.19 6.2 43.1 64 -0.2 31.6
10:15 1024 30.24 853 25.19 6.8 44.3 61 -0.1 31.8
10:20 1024 30.24 853 25.19 6.6 43.9 61 -0.4 31.4
10:25 1024 30.24 853 25.19 6.5 43.7 63 0 32
10:30 1024 30.24 853 25.19 6.2 43.2 63 -0.3 31.4
10:35 1024 30.24 853 25.19 6.7 44 61 -0.4 31.4
10:40 1023 30.21 853 25.19 6.4 43.5 63 -0.1 31.8
10:45 1023 30.21 853 25.19 6.3 43.3 63 -0.2 31.7
10:50 1023 30.21 852 25.16 6.8 44.2 63 0.3 32.5
10:55 1023 30.21 852 25.16 6.7 44 59 -0.8 30.5
11:00 1023 30.21 852 25.16 6.9 44.4 58 -0.8 30.5
11:05 1023 30.21 852 25.16 6.9 44.4 57 -0.9 30.3
11:10 1023 30.21 852 25.16 7.6 45.6 54 -1.1 30.1
11:15 1023 30.21 852 25.16 7.5 45.4 55 -1.1 30
11:20 1023 30.21 852 25.16 7.9 46.2 54 -0.8 30.5
11:25 1023 30.21 852 25.16 7.9 46.2 55 -0.6 30.9
11:30 1023 30.21 852 25.16 7.9 46.3 52 -1.2 29.9
11:35 1023 30.21 852 25.16 8.3 46.9 52 -0.8 30.5
11:40 1023 30.21 852 25.16 8.3 47 52 -0.8 30.5
11:45 1023 30.21 852 25.16 8.4 47.2 53 -0.6 30.9
11:50 1023 30.21 852 25.16 9.2 48.5 52 -0.3 31.5
11:55 1023 30.21 852 25.16 9.7 49.5 49 -0.4 31.3
12:00 1023 30.21 852 25.16 9.8 49.6 49 -0.6 31
12:05 1023 30.21 852 25.16 9.3 48.8 50 -0.6 30.9
12:10 1023 30.21 852 25.16 9.5 49.1 50 -0.4 31.2
12:15 1023 30.21 852 25.16 9.6 49.3 50 -0.2 31.7
12:20 1023 30.21 852 25.16 9.5 49.1 52 0.2 32.3
12:25 1023 30.21 852 25.16 9.9 49.8 52 0.4 32.8
12:30 1023 30.21 852 25.16 9.6 49.3 50 -0.3 31.5
12:35 1023 30.21 852 25.16 9.6 49.2 53 0.4 32.8
12:40 1023 30.21 852 25.16 10.4 50.8 47 -0.4 31.3
12:45 1023 30.21 852 25.16 10.6 51.2 49 0.3 32.5
12:50 1023 30.21 852 25.16 10.8 51.4 46 -0.2 31.6
12:55 1023 30.21 852 25.16 11.5 52.7 47 0.7 33.3
13:00 1023 30.21 852 25.16 11.9 53.5 44 0.1 32.2
13:05 1023 30.21 852 25.16 12 53.5 44 0.1 32.2
13:10 1023 30.21 852 25.16 11.7 53.1 46 0.6 33.2
13:15 1023 30.21 852 25.16 11.5 52.6 46 0.4 32.8
13:20 1023 30.21 852 25.16 12.1 53.7 43 -0.2 31.6
13:25 1023 30.21 852 25.16 12.1 53.8 43 0.1 32.2
13:30 1023 30.21 852 25.16 11.9 53.5 46 0.8 33.5
13:35 1022 30.18 852 25.16 11.5 52.7 45 -0 32
13:40 1022 30.18 852 25.16 11.1 52.1 47 0.4 32.8
13:45 1022 30.18 852 25.16 10.4 50.7 49 0.1 32.3
13:50 1022 30.18 852 25.16 11 51.7 48 0.5 32.9
13:55 1022 30.18 851 25.13 9.9 49.9 49 -0.2 31.7
14:00 1022 30.18 851 25.13 10.2 50.3 47 -0.6 30.9
14:05 1022 30.18 851 25.13 10.7 51.2 47 -0.2 31.7
14:10 1022 30.18 851 25.13 9.9 49.8 48 -0.7 30.8
14:15 1022 30.18 851 25.13 10.4 50.7 46 -0.7 30.7
14:20 1022 30.18 851 25.13 10.5 51 46 -0.5 31.1
14:25 1022 30.18 851 25.13 10.8 51.4 44 -0.8 30.5
14:30 1022 30.18 851 25.13 10.3 50.6 47 -0.4 31.3
14:35 1022 30.18 851 25.13 10 50 48 -0.5 31.1
14:40 1022 30.18 851 25.13 10.3 50.6 47 -0.5 31.1
14:45 1022 30.18 851 25.13 10.5 50.8 47 -0.3 31.4
14:50 1022 30.18 851 25.13 10.2 50.3 45 -1.1 30.1
14:55 1022 30.18 851 25.13 10 49.9 48 -0.5 31.2
15:00 1022 30.18 851 25.13 10.7 51.2 45 -0.7 30.7
15:05 1022 30.18 851 25.13 10.8 51.5 45 -0.7 30.8
15:10 1022 30.18 851 25.13 11 51.9 44 -0.6 30.9
15:15 1022 30.18 851 25.13 11.2 52.2 44 -0.6 31
15:20 1022 30.18 851 25.13 11.7 53 42 -0.6 30.9
15:25 1022 30.18 851 25.13 11.9 53.5 43 -0.3 31.4
15:30 1022 30.18 851 25.13 11.9 53.5 44 -0 32
15:35 1022 30.18 851 25.13 11.1 52 43 -0.8 30.5
15:40 1022 30.18 851 25.13 11.1 51.9 43 -0.9 30.3
15:45 1021 30.15 851 25.13 10.5 50.9 46 -0.7 30.8
15:50 1021 30.15 851 25.13 10.1 50.1 51 0.3 32.6
15:55 1022 30.18 851 25.13 10 50 55 1.4 34.6
16:00 1022 30.18 851 25.13 9.9 49.8 53 0.8 33.5
16:05 1022 30.18 851 25.13 9.7 49.5 56 1.5 34.7
16:10 1022 30.18 851 25.13 9.7 49.4 57 1.5 34.7
16:15 1022 30.18 851 25.13 9.5 49 57 1.4 34.6
16:20 1022 30.18 851 25.13 9.6 49.2 55 1 33.8
16:25 1022 30.18 851 25.13 9.4 49 55 0.8 33.5
16:30 1022 30.18 851 25.13 9.2 48.5 58 1.2 34.2
16:35 1022 30.18 851 25.13 9.1 48.3 58 1.2 34.2
16:40 1022 30.18 851 25.13 9 48.2 57 1 33.8
16:45 1022 30.18 851 25.13 9.2 48.5 57 1 33.9
16:50 1022 30.18 851 25.13 9.6 49.2 54 0.9 33.6
16:55 1022 30.18 851 25.13 9.3 48.7 58 1.4 34.4
17:00 1022 30.18 851 25.13 8.6 47.5 61 1.5 34.7
17:05 1022 30.18 851 25.13 8.4 47.1 61 1.3 34.4
17:10 1022 30.18 851 25.13 8.4 47 61 1.3 34.4
17:15 1022 30.18 851 25.13 8.2 46.7 61 1.1 33.9
17:20 1022 30.18 851 25.13 8.1 46.6 63 1.4 34.6
17:25 1022 30.18 851 25.13 8.2 46.8 61 1.2 34.2
17:30 1022 30.18 851 25.13 8.2 46.8 60 1 33.8
17:35 1022 30.18 851 25.13 8.3 46.9 60 1.1 33.9
17:40 1022 30.18 851 25.13 8.4 47.1 60 1.1 34
17:45 1022 30.18 851 25.13 8.7 47.6 59 1.1 34.1
17:50 1022 30.18 851 25.13 8.5 47.3 60 1.2 34.2
17:55 1022 30.18 851 25.13 8 46.4 62 1.2 34.1
18:00 1022 30.18 851 25.13 7.7 45.9 64 1.4 34.5
18:05 1022 30.18 851 25.13 7.5 45.5 65 1.3 34.4
18:10 1022 30.18 851 25.13 7.4 45.3 65 1.3 34.3
18:15 1022 30.18 851 25.13 7.4 45.2 65 1.3 34.3
18:20 1022 30.18 851 25.13 7.2 45 66 1.4 34.5
18:25 1022 30.18 851 25.13 7 44.7 66 1.2 34.2
18:30 1022 30.18 851 25.13 6.8 44.2 67 1.2 34.1
18:35 1022 30.18 851 25.13 6.7 44.1 67 1.1 34
18:40 1022 30.18 851 25.13 6.8 44.3 67 1.3 34.3
18:45 1022 30.18 851 25.13 6.7 44.1 67 1 33.9
18:50 1022 30.18 851 25.13 6.7 44 67 1 33.7
18:55 1022 30.18 851 25.13 6.6 44 67 0.9 33.7
19:00 1022 30.18 851 25.13 6.6 43.9 67 0.9 33.6
19:05 1022 30.18 851 25.13 6.6 44 67 0.9 33.7
19:10 1022 30.18 851 25.13 6.6 43.9 67 0.9 33.6
19:15 1022 30.18 851 25.13 6.6 43.9 66 0.8 33.4
19:20 1022 30.18 851 25.13 6.6 43.9 66 0.8 33.4
19:25 1022 30.18 851 25.13 6.6 43.8 66 0.8 33.4
19:30 1022 30.18 851 25.13 6.5 43.7 66 0.6 33.1
19:35 1022 30.18 851 25.13 6.5 43.7 66 0.7 33.2
19:40 1022 30.18 851 25.13 6.4 43.6 67 0.7 33.3
19:45 1022 30.18 851 25.13 6.3 43.4 67 0.7 33.3
19:50 1022 30.18 851 25.13 6.2 43.2 68 0.7 33.3
19:55 1022 30.18 851 25.13 6.2 43.2 68 0.7 33.3
20:00 1022 30.18 851 25.13 6.2 43.1 68 0.7 33.2
20:05 1022 30.18 851 25.13 6.1 43 68 0.6 33
20:10 1022 30.18 851 25.13 6 42.8 69 0.8 33.4
20:15 1022 30.18 851 25.13 5.9 42.7 69 0.7 33.2
20:20 1022 30.18 851 25.13 5.9 42.7 69 0.7 33.2
20:25 1022 30.18 851 25.13 6 42.7 69 0.7 33.2
20:30 1022 30.18 851 25.13 5.9 42.7 69 0.7 33.2
20:35 1022 30.18 851 25.13 5.8 42.5 69 0.6 33.2
20:40 1022 30.18 851 25.13 5.8 42.4 70 0.7 33.2
20:45 1022 30.18 851 25.13 5.7 42.2 71 0.8 33.4
20:50 1022 30.18 851 25.13 5.5 42 72 0.8 33.4
20:55 1022 30.18 851 25.13 5.5 41.9 71 0.7 33.2
21:00 1022 30.18 851 25.13 5.5 42 72 0.8 33.5
21:05 1022 30.18 851 25.13 5.5 41.9 71 0.7 33.3
21:10 1022 30.18 851 25.13 5.6 42 71 0.7 33.2
21:15 1022 30.18 851 25.13 5.5 41.9 72 0.8 33.5
21:20 1022 30.18 851 25.13 5.4 41.7 72 0.7 33.3
21:25 1022 30.18 851 25.13 5.3 41.5 72 0.7 33.2
21:30 1022 30.18 851 25.13 5.2 41.3 72 0.6 33.1
21:35 1022 30.18 851 25.13 5.1 41.1 73 0.7 33.2
21:40 1022 30.18 851 25.13 5 40.9 73 0.6 33.1
21:45 1022 30.18 851 25.13 4.9 40.7 73 0.5 32.9
21:50 1022 30.18 851 25.13 4.8 40.7 74 0.6 33
21:55 1022 30.18 851 25.13 4.7 40.5 74 0.5 33
22:00 1022 30.18 851 25.13 4.7 40.5 74 0.5 33
22:05 1022 30.18 851 25.13 4.5 40.1 75 0.4 32.8
22:10 1022 30.18 851 25.13 4.4 40 74 0.3 32.5
22:15 1022 30.18 851 25.13 4.5 40.2 74 0.3 32.5
22:20 1022 30.18 851 25.13 4.5 40.2 74 0.3 32.6
22:25 1022 30.18 851 25.13 4.4 40 75 0.3 32.6
22:30 1022 30.18 851 25.13 4.3 39.7 76 0.4 32.6
22:35 1022 30.18 851 25.13 4.2 39.5 76 0.3 32.6
22:40 1022 30.18 851 25.13 4 39.2 76 0.3 32.5
22:45 1022 30.18 851 25.13 3.9 39 77 0.2 32.4
22:50 1022 30.18 851 25.13 3.8 38.9 77 0.2 32.4
22:55 1022 30.18 851 25.13 3.7 38.6 78 0.2 32.4
23:00 1022 30.18 851 25.13 3.6 38.5 78 0.1 32.2
23:05 1022 30.18 851 25.13 3.6 38.5 79 0.2 32.4
23:10 1022 30.18 851 25.13 3.4 38.2 79 0.2 32.4
23:15 1022 30.18 851 25.13 3.4 38.1 80 0.2 32.4
23:20 1022 30.18 851 25.13 3.4 38 80 0.2 32.4
23:25 1022 30.18 851 25.13 3.3 38 80 0.2 32.4
23:30 1022 30.18 851 25.13 3.3 37.9 79 0.1 32.1
23:35 1022 30.18 851 25.13 3.3 38 79 0 32.1
23:40 1022 30.18 851 25.13 3.3 37.9 79 0 32
23:45 1022 30.18 851 25.13 3.2 37.8 79 -0.1 31.9
23:50 1022 30.18 851 25.13 3 37.4 80 -0.1 31.9
23:55 1022 30.18 851 25.13 2.9 37.1 81 -0.2 31.7
24:00 1022 30.18 851 25.13 2.9 37.2 80 -0.2 31.7